Time;durP1;ratioP1;P1;durP2;ratioP2;P2;SDS_P1;SDS_P2;PMS_P1;PMS_P2;Temp;Humidity;BMP_temperature;BMP_pressure;BME280_temperature;BME280_humidity;BME280_pressure;Samples;Min_cycle;Max_cycle;Signal;HPM_P1;HPM_P2
2023/01/07 19:43:25;;;;;;;125.00;67.82;;;;;;;;;;5129420;27;20678;-70
2023/01/07 19:45:55;;;;;;;121.20;67.05;;;;;;;;;;5129506;28;20027;-69
2023/01/07 19:48:21;;;;;;;116.63;65.15;;;;;;;;;;5110813;28;20080;-63
2023/01/07 19:50:57;;;;;;;107.20;61.40;;;;;;;;;;5098731;28;20038;-67
2023/01/07 19:53:24;;;;;;;112.35;60.55;;;;;;;;;;5125201;28;20155;-67
2023/01/07 19:55:50;;;;;;;100.03;57.85;;;;;;;;;;5118308;28;20021;-70
2023/01/07 19:58:16;;;;;;;105.53;60.45;;;;;;;;;;5117824;28;20043;-73
2023/01/07 20:00:43;;;;;;;108.38;60.85;;;;;;;;;;5116790;28;20533;-73
2023/01/07 20:03:09;;;;;;;110.65;60.78;;;;;;;;;;5117718;28;20506;-73
2023/01/07 20:05:35;;;;;;;110.32;60.15;;;;;;;;;;5117869;28;20032;-61
2023/01/07 20:08:01;;;;;;;109.45;62.58;;;;;;;;;;5116853;28;20532;-63
2023/01/07 20:10:27;;;;;;;110.63;61.78;;;;;;;;;;5117579;28;20034;-63
2023/01/07 20:12:53;;;;;;;107.38;62.17;;;;;;;;;;5128395;28;20077;-62
2023/01/07 20:15:19;;;;;;;107.72;61.58;;;;;;;;;;5128408;28;20036;-63
2023/01/07 20:17:45;;;;;;;110.85;62.95;;;;;;;;;;5128267;28;20047;-64
2023/01/07 20:20:11;;;;;;;111.85;62.67;;;;;;;;;;5128202;28;20531;-63
2023/01/07 20:22:40;;;;;;;107.03;62.20;;;;;;;;;;5127960;28;20035;-63
2023/01/07 20:25:07;;;;;;;112.80;63.10;;;;;;;;;;5119026;28;20023;-63
2023/01/07 20:27:33;;;;;;;110.32;64.07;;;;;;;;;;5127175;28;20429;-63
2023/01/07 20:29:59;;;;;;;110.10;64.38;;;;;;;;;;5128063;28;20471;-68
2023/01/07 20:32:25;;;;;;;111.68;64.45;;;;;;;;;;5127861;28;20152;-61
2023/01/07 20:34:52;;;;;;;108.43;62.97;;;;;;;;;;5109048;28;20063;-63
2023/01/07 20:37:18;;;;;;;106.53;62.72;;;;;;;;;;5122883;28;20106;-69
2023/01/07 20:39:44;;;;;;;100.60;61.95;;;;;;;;;;5126238;28;20027;-66
2023/01/07 20:42:10;;;;;;;107.55;62.78;;;;;;;;;;5115396;28;20063;-62
2023/01/07 20:44:36;;;;;;;108.07;63.30;;;;;;;;;;5106915;28;20032;-62
2023/01/07 20:47:03;;;;;;;105.15;62.08;;;;;;;;;;5100691;28;20066;-61
2023/01/07 20:49:29;;;;;;;106.70;63.40;;;;;;;;;;5089053;28;20024;-63
2023/01/07 20:51:55;;;;;;;105.03;61.78;;;;;;;;;;5106630;28;20054;-63
2023/01/07 20:54:21;;;;;;;107.10;62.03;;;;;;;;;;5093008;28;20021;-67
2023/01/07 20:56:47;;;;;;;103.82;61.78;;;;;;;;;;5093532;28;20028;-63
2023/01/07 20:59:14;;;;;;;108.35;65.38;;;;;;;;;;5093215;28;20034;-64
2023/01/07 21:01:41;;;;;;;107.45;62.55;;;;;;;;;;5092832;28;20024;-66
2023/01/07 21:04:07;;;;;;;103.88;60.90;;;;;;;;;;5092788;28;20028;-64
2023/01/07 21:06:33;;;;;;;100.93;59.42;;;;;;;;;;5093006;28;20024;-63
2023/01/07 21:09:00;;;;;;;102.60;59.80;;;;;;;;;;5092943;28;20082;-62
2023/01/07 21:11:26;;;;;;;99.57;58.67;;;;;;;;;;5092496;28;20036;-63
2023/01/07 21:13:54;;;;;;;110.22;63.88;;;;;;;;;;5092723;28;20039;-64
2023/01/07 21:16:21;;;;;;;98.72;59.10;;;;;;;;;;5092697;28;20507;-63
2023/01/07 21:18:47;;;;;;;98.07;60.53;;;;;;;;;;5092385;28;20131;-62
2023/01/07 21:21:14;;;;;;;95.97;58.65;;;;;;;;;;5092632;28;20443;-63
2023/01/07 21:23:40;;;;;;;95.60;58.08;;;;;;;;;;5092089;28;20028;-63
2023/01/07 21:26:07;;;;;;;93.53;54.20;;;;;;;;;;5086006;28;20035;-61
2023/01/07 21:28:33;;;;;;;101.82;57.03;;;;;;;;;;5092461;28;20391;-63
2023/01/07 21:31:07;;;;;;;87.13;51.90;;;;;;;;;;5092799;28;20027;-61
2023/01/07 21:33:34;;;;;;;97.47;55.90;;;;;;;;;;5092498;28;20024;-60
2023/01/07 21:36:00;;;;;;;99.80;58.05;;;;;;;;;;5092225;28;20028;-62
2023/01/07 21:38:26;;;;;;;98.93;54.03;;;;;;;;;;5092418;28;20107;-61
2023/01/07 21:40:52;;;;;;;96.97;53.35;;;;;;;;;;5092179;28;20061;-65
2023/01/07 21:43:18;;;;;;;93.07;53.72;;;;;;;;;;5092267;28;20036;-64
2023/01/07 21:45:44;;;;;;;88.28;51.55;;;;;;;;;;5092373;28;20028;-69
2023/01/07 21:48:11;;;;;;;86.47;48.60;;;;;;;;;;5091971;28;20020;-62
2023/01/07 21:50:37;;;;;;;87.85;50.28;;;;;;;;;;5092384;28;20016;-61
2023/01/07 21:53:03;;;;;;;82.70;48.65;;;;;;;;;;5091820;28;20387;-61
2023/01/07 21:55:29;;;;;;;86.38;48.63;;;;;;;;;;5092316;28;20471;-61
2023/01/07 21:57:55;;;;;;;86.15;48.25;;;;;;;;;;5091682;28;20024;-61
2023/01/07 22:00:21;;;;;;;82.72;49.22;;;;;;;;;;5092337;28;20445;-61
2023/01/07 22:02:47;;;;;;;80.32;47.70;;;;;;;;;;5091511;28;20491;-60
2023/01/07 22:05:13;;;;;;;75.70;47.20;;;;;;;;;;5091074;28;20032;-61
2023/01/07 22:07:39;;;;;;;82.68;49.08;;;;;;;;;;5091795;28;20035;-60
2023/01/07 22:10:06;;;;;;;85.00;48.67;;;;;;;;;;5091397;28;20027;-60
2023/01/07 22:12:32;;;;;;;79.45;46.65;;;;;;;;;;5091579;28;20032;-60
2023/01/07 22:14:58;;;;;;;76.70;45.08;;;;;;;;;;5091294;28;20055;-60
2023/01/07 22:17:24;;;;;;;77.68;46.70;;;;;;;;;;5091146;28;20035;-61
2023/01/07 22:19:50;;;;;;;77.45;46.50;;;;;;;;;;5090298;28;20024;-61
2023/01/07 22:22:18;;;;;;;83.68;48.05;;;;;;;;;;5091678;28;20539;-64
2023/01/07 22:24:44;;;;;;;78.18;46.10;;;;;;;;;;5090813;28;20476;-61
2023/01/07 22:27:10;;;;;;;80.22;46.33;;;;;;;;;;5091637;28;20047;-61
2023/01/07 22:29:36;;;;;;;78.15;45.83;;;;;;;;;;5091059;28;20028;-63
2023/01/07 22:32:02;;;;;;;73.13;44.97;;;;;;;;;;5091412;28;20032;-65
2023/01/07 22:34:28;;;;;;;77.47;45.13;;;;;;;;;;5091170;28;20484;-61
2023/01/07 22:36:54;;;;;;;73.07;44.65;;;;;;;;;;5090954;28;20032;-61
2023/01/07 22:39:23;;;;;;;77.20;46.47;;;;;;;;;;5073529;28;20031;-62
2023/01/07 22:41:51;;;;;;;79.47;47.25;;;;;;;;;;5091326;28;20044;-62
2023/01/07 22:44:22;;;;;;;77.10;46.95;;;;;;;;;;5091767;28;20082;-61
2023/01/07 22:46:49;;;;;;;78.68;46.28;;;;;;;;;;5085403;28;20426;-62
2023/01/07 22:49:16;;;;;;;80.53;47.17;;;;;;;;;;5080910;28;20028;-62
2023/01/07 22:51:45;;;;;;;80.03;47.75;;;;;;;;;;5080867;28;20027;-62
2023/01/07 22:54:11;;;;;;;81.80;46.00;;;;;;;;;;5079138;28;20021;-66
2023/01/07 22:56:37;;;;;;;80.38;46.53;;;;;;;;;;5080751;28;20046;-67
2023/01/07 22:59:03;;;;;;;87.28;48.20;;;;;;;;;;5080808;28;20032;-64
2023/01/07 23:01:30;;;;;;;86.32;49.92;;;;;;;;;;5081557;28;20036;-62
2023/01/07 23:03:56;;;;;;;82.57;48.08;;;;;;;;;;5079516;28;20541;-62
2023/01/07 23:06:22;;;;;;;76.72;46.10;;;;;;;;;;5079324;28;20099;-63
2023/01/07 23:08:49;;;;;;;84.05;46.65;;;;;;;;;;5078653;28;20091;-63
2023/01/07 23:11:46;;;;;;;82.25;48.05;;;;;;;;;;5080732;28;20760;-62
2023/01/07 23:14:01;;;;;;;78.13;45.63;;;;;;;;;;5080045;28;20082;-62
2023/01/07 23:16:27;;;;;;;78.10;45.78;;;;;;;;;;5078673;28;20024;-62
2023/01/07 23:18:53;;;;;;;83.07;47.50;;;;;;;;;;5080748;28;20142;-62
2023/01/07 23:21:19;;;;;;;79.60;47.95;;;;;;;;;;5079681;28;20068;-62
2023/01/07 23:23:45;;;;;;;80.80;46.97;;;;;;;;;;5087775;28;20024;-63
2023/01/07 23:26:14;;;;;;;85.93;48.42;;;;;;;;;;5091253;28;20025;-64
2023/01/07 23:28:40;;;;;;;87.95;49.03;;;;;;;;;;5090883;28;20031;-62
2023/01/07 23:31:06;;;;;;;84.55;47.97;;;;;;;;;;5091151;28;20100;-68
2023/01/07 23:33:32;;;;;;;88.50;48.88;;;;;;;;;;5090739;28;20028;-62
2023/01/07 23:36:04;;;;;;;84.95;46.75;;;;;;;;;;5090792;28;20019;-62
2023/01/07 23:38:30;;;;;;;84.53;46.75;;;;;;;;;;5091294;28;20520;-62
2023/01/07 23:41:03;;;;;;;77.97;45.58;;;;;;;;;;5090523;28;20028;-62
2023/01/07 23:43:30;;;;;;;81.93;47.50;;;;;;;;;;5091229;28;20040;-63
2023/01/07 23:45:59;;;;;;;83.18;47.65;;;;;;;;;;5090732;28;20024;-62
2023/01/07 23:48:25;;;;;;;78.78;46.80;;;;;;;;;;5091081;28;20043;-62
2023/01/07 23:50:52;;;;;;;75.55;44.53;;;;;;;;;;5091005;28;20032;-62
2023/01/07 23:53:18;;;;;;;77.30;45.05;;;;;;;;;;5090874;28;20104;-63
2023/01/07 23:55:51;;;;;;;80.47;46.45;;;;;;;;;;5090964;28;20027;-62
2023/01/07 23:58:17;;;;;;;80.18;45.80;;;;;;;;;;5090873;28;20533;-62
